sensor_id;sensor_type;location;lat;lon;timestamp;P1;durP1;ratioP1;P2;durP2;ratioP2
5052;SDS011;2545;50.892;5.740;2022-07-29T00:00:26;10.10;;;2.60;;
5052;SDS011;2545;50.892;5.740;2022-07-29T00:02:51;12.80;;;3.00;;
5052;SDS011;2545;50.892;5.740;2022-07-29T00:05:17;7.83;;;2.67;;
5052;SDS011;2545;50.892;5.740;2022-07-29T00:07:42;7.57;;;2.80;;
5052;SDS011;2545;50.892;5.740;2022-07-29T00:10:07;13.47;;;2.93;;
5052;SDS011;2545;50.892;5.740;2022-07-29T00:12:34;7.60;;;2.50;;
5052;SDS011;2545;50.892;5.740;2022-07-29T00:15:00;4.20;;;2.47;;
5052;SDS011;2545;50.892;5.740;2022-07-29T00:17:25;12.80;;;2.43;;
5052;SDS011;2545;50.892;5.740;2022-07-29T00:19:51;4.57;;;2.40;;
5052;SDS011;2545;50.892;5.740;2022-07-29T00:22:17;12.90;;;2.90;;
5052;SDS011;2545;50.892;5.740;2022-07-29T00:24:42;5.83;;;2.10;;
5052;SDS011;2545;50.892;5.740;2022-07-29T00:27:08;8.63;;;2.33;;
5052;SDS011;2545;50.892;5.740;2022-07-29T00:29:33;5.93;;;2.53;;
5052;SDS011;2545;50.892;5.740;2022-07-29T00:31:58;5.03;;;2.93;;
5052;SDS011;2545;50.892;5.740;2022-07-29T00:34:24;5.53;;;2.30;;
5052;SDS011;2545;50.892;5.740;2022-07-29T00:37:07;6.37;;;2.23;;
5052;SDS011;2545;50.892;5.740;2022-07-29T00:39:33;6.00;;;2.43;;
5052;SDS011;2545;50.892;5.740;2022-07-29T00:41:58;4.10;;;2.03;;
5052;SDS011;2545;50.892;5.740;2022-07-29T00:44:23;10.03;;;2.83;;
5052;SDS011;2545;50.892;5.740;2022-07-29T00:46:49;4.63;;;2.03;;
5052;SDS011;2545;50.892;5.740;2022-07-29T00:49:14;8.93;;;2.60;;
5052;SDS011;2545;50.892;5.740;2022-07-29T00:51:39;13.03;;;3.40;;
5052;SDS011;2545;50.892;5.740;2022-07-29T00:54:07;14.33;;;2.30;;
5052;SDS011;2545;50.892;5.740;2022-07-29T00:56:32;9.80;;;2.83;;
5052;SDS011;2545;50.892;5.740;2022-07-29T00:58:58;7.73;;;2.27;;
5052;SDS011;2545;50.892;5.740;2022-07-29T01:01:24;9.20;;;2.33;;
5052;SDS011;2545;50.892;5.740;2022-07-29T01:03:50;4.07;;;2.10;;
5052;SDS011;2545;50.892;5.740;2022-07-29T01:06:16;4.47;;;1.97;;
5052;SDS011;2545;50.892;5.740;2022-07-29T01:08:43;6.80;;;2.40;;
5052;SDS011;2545;50.892;5.740;2022-07-29T01:11:10;7.90;;;2.60;;
5052;SDS011;2545;50.892;5.740;2022-07-29T01:13:37;4.50;;;2.43;;
5052;SDS011;2545;50.892;5.740;2022-07-29T01:16:03;3.57;;;2.47;;
5052;SDS011;2545;50.892;5.740;2022-07-29T01:18:37;13.33;;;2.50;;
5052;SDS011;2545;50.892;5.740;2022-07-29T01:31:59;6.50;;;2.40;;
5052;SDS011;2545;50.892;5.740;2022-07-29T01:37:22;5.97;;;1.93;;
5052;SDS011;2545;50.892;5.740;2022-07-29T01:39:54;10.50;;;2.83;;
5052;SDS011;2545;50.892;5.740;2022-07-29T01:42:29;3.23;;;2.10;;
5052;SDS011;2545;50.892;5.740;2022-07-29T01:45:10;7.20;;;2.87;;
5052;SDS011;2545;50.892;5.740;2022-07-29T01:47:44;3.10;;;2.37;;
5052;SDS011;2545;50.892;5.740;2022-07-29T01:50:17;6.30;;;2.37;;
5052;SDS011;2545;50.892;5.740;2022-07-29T01:52:49;4.47;;;2.60;;
5052;SDS011;2545;50.892;5.740;2022-07-29T01:55:19;8.60;;;3.10;;
5052;SDS011;2545;50.892;5.740;2022-07-29T01:57:47;6.20;;;3.07;;
5052;SDS011;2545;50.892;5.740;2022-07-29T02:00:14;10.20;;;2.87;;
5052;SDS011;2545;50.892;5.740;2022-07-29T02:02:41;5.47;;;2.53;;
5052;SDS011;2545;50.892;5.740;2022-07-29T02:05:09;9.20;;;2.87;;
5052;SDS011;2545;50.892;5.740;2022-07-29T02:07:38;6.43;;;2.80;;
5052;SDS011;2545;50.892;5.740;2022-07-29T02:10:07;11.40;;;3.00;;
5052;SDS011;2545;50.892;5.740;2022-07-29T02:12:34;4.10;;;2.57;;
5052;SDS011;2545;50.892;5.740;2022-07-29T02:15:01;6.03;;;2.97;;
5052;SDS011;2545;50.892;5.740;2022-07-29T02:17:31;8.10;;;2.60;;
5052;SDS011;2545;50.892;5.740;2022-07-29T02:20:01;7.03;;;2.97;;
5052;SDS011;2545;50.892;5.740;2022-07-29T02:22:29;7.63;;;2.70;;
5052;SDS011;2545;50.892;5.740;2022-07-29T02:24:56;7.70;;;2.97;;
5052;SDS011;2545;50.892;5.740;2022-07-29T02:27:23;7.13;;;3.50;;
5052;SDS011;2545;50.892;5.740;2022-07-29T02:29:49;12.30;;;3.00;;
5052;SDS011;2545;50.892;5.740;2022-07-29T02:32:17;8.47;;;2.80;;
5052;SDS011;2545;50.892;5.740;2022-07-29T02:34:44;11.13;;;3.10;;
5052;SDS011;2545;50.892;5.740;2022-07-29T02:37:11;14.37;;;3.30;;
5052;SDS011;2545;50.892;5.740;2022-07-29T02:39:39;10.10;;;3.47;;
5052;SDS011;2545;50.892;5.740;2022-07-29T02:42:07;7.93;;;3.30;;
5052;SDS011;2545;50.892;5.740;2022-07-29T02:44:34;7.40;;;3.20;;
5052;SDS011;2545;50.892;5.740;2022-07-29T02:47:07;11.03;;;4.10;;
5052;SDS011;2545;50.892;5.740;2022-07-29T02:49:40;5.20;;;3.70;;
5052;SDS011;2545;50.892;5.740;2022-07-29T02:52:14;9.23;;;3.70;;
5052;SDS011;2545;50.892;5.740;2022-07-29T03:00:14;9.23;;;3.90;;
5052;SDS011;2545;50.892;5.740;2022-07-29T03:02:43;6.23;;;3.47;;
5052;SDS011;2545;50.892;5.740;2022-07-29T03:05:10;5.93;;;3.30;;
5052;SDS011;2545;50.892;5.740;2022-07-29T03:07:43;9.77;;;3.50;;
5052;SDS011;2545;50.892;5.740;2022-07-29T03:10:12;7.07;;;3.43;;
5052;SDS011;2545;50.892;5.740;2022-07-29T03:12:38;8.70;;;3.70;;
5052;SDS011;2545;50.892;5.740;2022-07-29T03:15:04;8.80;;;3.40;;
5052;SDS011;2545;50.892;5.740;2022-07-29T03:17:31;6.33;;;3.07;;
5052;SDS011;2545;50.892;5.740;2022-07-29T03:19:57;13.17;;;3.70;;
5052;SDS011;2545;50.892;5.740;2022-07-29T03:22:23;10.87;;;3.40;;
5052;SDS011;2545;50.892;5.740;2022-07-29T03:24:49;15.10;;;3.80;;
5052;SDS011;2545;50.892;5.740;2022-07-29T03:27:14;7.60;;;3.67;;
5052;SDS011;2545;50.892;5.740;2022-07-29T03:29:39;7.50;;;3.60;;
5052;SDS011;2545;50.892;5.740;2022-07-29T03:32:05;7.67;;;3.10;;
5052;SDS011;2545;50.892;5.740;2022-07-29T03:34:30;7.37;;;3.60;;
5052;SDS011;2545;50.892;5.740;2022-07-29T03:36:56;6.87;;;3.40;;
5052;SDS011;2545;50.892;5.740;2022-07-29T03:39:21;9.73;;;3.23;;
5052;SDS011;2545;50.892;5.740;2022-07-29T03:41:49;14.20;;;3.30;;
5052;SDS011;2545;50.892;5.740;2022-07-29T03:44:18;8.13;;;3.57;;
5052;SDS011;2545;50.892;5.740;2022-07-29T03:46:45;9.77;;;3.23;;
5052;SDS011;2545;50.892;5.740;2022-07-29T03:49:13;7.90;;;3.13;;
5052;SDS011;2545;50.892;5.740;2022-07-29T03:51:41;12.43;;;3.50;;
5052;SDS011;2545;50.892;5.740;2022-07-29T03:54:07;5.27;;;2.80;;
5052;SDS011;2545;50.892;5.740;2022-07-29T03:56:34;12.53;;;3.90;;
5052;SDS011;2545;50.892;5.740;2022-07-29T03:59:02;14.17;;;3.37;;
5052;SDS011;2545;50.892;5.740;2022-07-29T04:01:29;12.73;;;3.67;;
5052;SDS011;2545;50.892;5.740;2022-07-29T04:03:55;6.93;;;3.20;;
5052;SDS011;2545;50.892;5.740;2022-07-29T04:06:21;6.00;;;3.40;;
5052;SDS011;2545;50.892;5.740;2022-07-29T04:08:46;7.90;;;3.93;;
5052;SDS011;2545;50.892;5.740;2022-07-29T04:11:12;6.40;;;3.50;;
5052;SDS011;2545;50.892;5.740;2022-07-29T04:13:37;10.00;;;3.97;;
5052;SDS011;2545;50.892;5.740;2022-07-29T04:16:03;12.20;;;4.43;;
5052;SDS011;2545;50.892;5.740;2022-07-29T04:18:28;9.40;;;4.43;;
5052;SDS011;2545;50.892;5.740;2022-07-29T04:20:53;13.20;;;4.37;;
5052;SDS011;2545;50.892;5.740;2022-07-29T04:23:19;10.73;;;4.10;;
5052;SDS011;2545;50.892;5.740;2022-07-29T04:25:44;17.27;;;4.53;;
5052;SDS011;2545;50.892;5.740;2022-07-29T04:28:09;16.77;;;4.30;;
5052;SDS011;2545;50.892;5.740;2022-07-29T04:30:35;11.47;;;4.07;;
5052;SDS011;2545;50.892;5.740;2022-07-29T04:33:03;9.63;;;4.23;;
5052;SDS011;2545;50.892;5.740;2022-07-29T04:35:30;9.23;;;3.80;;
5052;SDS011;2545;50.892;5.740;2022-07-29T04:37:55;10.53;;;3.70;;
5052;SDS011;2545;50.892;5.740;2022-07-29T04:40:21;7.60;;;4.00;;
5052;SDS011;2545;50.892;5.740;2022-07-29T04:42:46;6.57;;;3.67;;
5052;SDS011;2545;50.892;5.740;2022-07-29T04:45:12;8.93;;;4.00;;
5052;SDS011;2545;50.892;5.740;2022-07-29T04:47:37;6.13;;;3.73;;
5052;SDS011;2545;50.892;5.740;2022-07-29T04:50:02;11.20;;;4.03;;
5052;SDS011;2545;50.892;5.740;2022-07-29T04:52:28;6.10;;;3.50;;
5052;SDS011;2545;50.892;5.740;2022-07-29T04:54:53;10.27;;;4.10;;
5052;SDS011;2545;50.892;5.740;2022-07-29T04:57:18;13.00;;;4.30;;
5052;SDS011;2545;50.892;5.740;2022-07-29T04:59:44;15.37;;;4.43;;
5052;SDS011;2545;50.892;5.740;2022-07-29T05:02:09;6.87;;;3.53;;
5052;SDS011;2545;50.892;5.740;2022-07-29T05:04:34;12.10;;;3.50;;
5052;SDS011;2545;50.892;5.740;2022-07-29T05:07:00;8.70;;;3.90;;
5052;SDS011;2545;50.892;5.740;2022-07-29T05:09:25;13.20;;;3.97;;
5052;SDS011;2545;50.892;5.740;2022-07-29T05:11:50;13.23;;;3.63;;
5052;SDS011;2545;50.892;5.740;2022-07-29T05:14:16;11.67;;;4.80;;
5052;SDS011;2545;50.892;5.740;2022-07-29T05:16:41;7.07;;;3.27;;
5052;SDS011;2545;50.892;5.740;2022-07-29T05:19:06;8.00;;;3.57;;
5052;SDS011;2545;50.892;5.740;2022-07-29T05:21:32;11.70;;;3.50;;
5052;SDS011;2545;50.892;5.740;2022-07-29T05:23:57;10.00;;;4.20;;
5052;SDS011;2545;50.892;5.740;2022-07-29T05:26:22;9.00;;;3.97;;
5052;SDS011;2545;50.892;5.740;2022-07-29T05:28:48;10.63;;;4.10;;
5052;SDS011;2545;50.892;5.740;2022-07-29T05:31:14;11.87;;;4.00;;
5052;SDS011;2545;50.892;5.740;2022-07-29T05:33:39;9.10;;;4.33;;
5052;SDS011;2545;50.892;5.740;2022-07-29T05:36:06;6.67;;;3.80;;
5052;SDS011;2545;50.892;5.740;2022-07-29T05:38:32;10.33;;;4.20;;
5052;SDS011;2545;50.892;5.740;2022-07-29T05:40:58;13.77;;;4.47;;
5052;SDS011;2545;50.892;5.740;2022-07-29T05:43:25;8.83;;;4.00;;
5052;SDS011;2545;50.892;5.740;2022-07-29T05:45:51;9.93;;;3.50;;
5052;SDS011;2545;50.892;5.740;2022-07-29T05:48:16;9.00;;;4.50;;
5052;SDS011;2545;50.892;5.740;2022-07-29T05:50:42;7.90;;;3.83;;
5052;SDS011;2545;50.892;5.740;2022-07-29T05:53:07;12.40;;;4.07;;
5052;SDS011;2545;50.892;5.740;2022-07-29T05:55:32;10.67;;;4.33;;
5052;SDS011;2545;50.892;5.740;2022-07-29T05:57:57;8.93;;;3.70;;
5052;SDS011;2545;50.892;5.740;2022-07-29T06:00:23;14.87;;;3.97;;
5052;SDS011;2545;50.892;5.740;2022-07-29T06:02:48;7.47;;;4.40;;
5052;SDS011;2545;50.892;5.740;2022-07-29T06:05:13;11.27;;;4.20;;
5052;SDS011;2545;50.892;5.740;2022-07-29T06:07:40;8.03;;;4.47;;
5052;SDS011;2545;50.892;5.740;2022-07-29T06:10:05;7.30;;;4.40;;
5052;SDS011;2545;50.892;5.740;2022-07-29T06:12:31;7.80;;;4.40;;
5052;SDS011;2545;50.892;5.740;2022-07-29T06:14:57;13.60;;;4.10;;
5052;SDS011;2545;50.892;5.740;2022-07-29T06:17:22;7.80;;;4.30;;
5052;SDS011;2545;50.892;5.740;2022-07-29T06:19:48;12.17;;;4.40;;
5052;SDS011;2545;50.892;5.740;2022-07-29T06:22:14;6.30;;;4.23;;
5052;SDS011;2545;50.892;5.740;2022-07-29T06:24:41;11.67;;;5.00;;
5052;SDS011;2545;50.892;5.740;2022-07-29T06:27:08;10.60;;;4.63;;
5052;SDS011;2545;50.892;5.740;2022-07-29T06:29:37;7.17;;;4.03;;
5052;SDS011;2545;50.892;5.740;2022-07-29T06:32:03;10.60;;;4.30;;
5052;SDS011;2545;50.892;5.740;2022-07-29T06:34:28;11.60;;;4.07;;
5052;SDS011;2545;50.892;5.740;2022-07-29T06:36:54;8.53;;;4.53;;
5052;SDS011;2545;50.892;5.740;2022-07-29T06:39:19;9.17;;;4.97;;
5052;SDS011;2545;50.892;5.740;2022-07-29T06:41:48;8.93;;;3.70;;
5052;SDS011;2545;50.892;5.740;2022-07-29T06:44:15;7.77;;;3.80;;
5052;SDS011;2545;50.892;5.740;2022-07-29T06:46:41;8.37;;;4.73;;
5052;SDS011;2545;50.892;5.740;2022-07-29T06:49:07;9.57;;;3.97;;
5052;SDS011;2545;50.892;5.740;2022-07-29T06:51:32;24.93;;;5.33;;
5052;SDS011;2545;50.892;5.740;2022-07-29T06:53:58;9.77;;;4.33;;
5052;SDS011;2545;50.892;5.740;2022-07-29T06:56:24;10.40;;;3.97;;
5052;SDS011;2545;50.892;5.740;2022-07-29T06:58:50;10.40;;;4.00;;
5052;SDS011;2545;50.892;5.740;2022-07-29T07:01:15;13.33;;;3.97;;
5052;SDS011;2545;50.892;5.740;2022-07-29T07:03:40;8.03;;;3.80;;
5052;SDS011;2545;50.892;5.740;2022-07-29T07:06:07;8.30;;;4.70;;
5052;SDS011;2545;50.892;5.740;2022-07-29T07:08:33;12.63;;;4.17;;
5052;SDS011;2545;50.892;5.740;2022-07-29T07:10:58;7.87;;;3.47;;
5052;SDS011;2545;50.892;5.740;2022-07-29T07:13:24;5.63;;;3.67;;
5052;SDS011;2545;50.892;5.740;2022-07-29T07:15:50;8.87;;;3.93;;
5052;SDS011;2545;50.892;5.740;2022-07-29T07:18:16;6.10;;;3.00;;
5052;SDS011;2545;50.892;5.740;2022-07-29T07:20:42;6.00;;;3.40;;
5052;SDS011;2545;50.892;5.740;2022-07-29T07:23:07;9.13;;;3.60;;
5052;SDS011;2545;50.892;5.740;2022-07-29T07:25:33;6.53;;;4.37;;
5052;SDS011;2545;50.892;5.740;2022-07-29T07:27:58;7.23;;;3.33;;
5052;SDS011;2545;50.892;5.740;2022-07-29T07:30:24;9.33;;;3.37;;
5052;SDS011;2545;50.892;5.740;2022-07-29T07:32:49;7.87;;;3.73;;
5052;SDS011;2545;50.892;5.740;2022-07-29T07:35:15;6.00;;;3.43;;
5052;SDS011;2545;50.892;5.740;2022-07-29T07:37:40;7.43;;;4.27;;
5052;SDS011;2545;50.892;5.740;2022-07-29T07:40:06;10.87;;;5.63;;
5052;SDS011;2545;50.892;5.740;2022-07-29T07:42:33;10.40;;;4.17;;
5052;SDS011;2545;50.892;5.740;2022-07-29T07:44:59;10.13;;;3.73;;
5052;SDS011;2545;50.892;5.740;2022-07-29T07:47:24;11.93;;;4.03;;
5052;SDS011;2545;50.892;5.740;2022-07-29T07:49:49;6.30;;;3.90;;
5052;SDS011;2545;50.892;5.740;2022-07-29T07:52:16;7.70;;;3.97;;
5052;SDS011;2545;50.892;5.740;2022-07-29T07:54:42;11.20;;;4.00;;
5052;SDS011;2545;50.892;5.740;2022-07-29T07:57:09;14.50;;;5.10;;
5052;SDS011;2545;50.892;5.740;2022-07-29T07:59:34;6.43;;;3.43;;
5052;SDS011;2545;50.892;5.740;2022-07-29T08:02:00;7.73;;;3.63;;
5052;SDS011;2545;50.892;5.740;2022-07-29T08:04:26;14.90;;;4.73;;
5052;SDS011;2545;50.892;5.740;2022-07-29T08:06:51;6.53;;;2.90;;
5052;SDS011;2545;50.892;5.740;2022-07-29T08:09:19;6.90;;;3.50;;
5052;SDS011;2545;50.892;5.740;2022-07-29T08:11:45;11.00;;;3.33;;
5052;SDS011;2545;50.892;5.740;2022-07-29T08:14:10;9.50;;;3.43;;
5052;SDS011;2545;50.892;5.740;2022-07-29T08:16:35;8.40;;;3.23;;
5052;SDS011;2545;50.892;5.740;2022-07-29T08:19:01;5.03;;;2.80;;
5052;SDS011;2545;50.892;5.740;2022-07-29T08:21:26;6.10;;;3.60;;
5052;SDS011;2545;50.892;5.740;2022-07-29T08:23:51;8.37;;;3.40;;
5052;SDS011;2545;50.892;5.740;2022-07-29T08:26:40;5.77;;;3.50;;
5052;SDS011;2545;50.892;5.740;2022-07-29T08:29:06;6.73;;;3.60;;
5052;SDS011;2545;50.892;5.740;2022-07-29T08:31:32;7.87;;;3.43;;
5052;SDS011;2545;50.892;5.740;2022-07-29T08:33:57;8.87;;;3.10;;
5052;SDS011;2545;50.892;5.740;2022-07-29T08:36:24;9.53;;;3.77;;
5052;SDS011;2545;50.892;5.740;2022-07-29T08:38:50;5.20;;;3.10;;
5052;SDS011;2545;50.892;5.740;2022-07-29T08:41:15;8.57;;;3.70;;
5052;SDS011;2545;50.892;5.740;2022-07-29T08:43:43;6.67;;;3.07;;
5052;SDS011;2545;50.892;5.740;2022-07-29T08:46:09;6.43;;;3.70;;
5052;SDS011;2545;50.892;5.740;2022-07-29T08:48:35;7.00;;;3.70;;
5052;SDS011;2545;50.892;5.740;2022-07-29T08:51:01;4.03;;;3.40;;
5052;SDS011;2545;50.892;5.740;2022-07-29T08:53:27;7.90;;;3.60;;
5052;SDS011;2545;50.892;5.740;2022-07-29T08:55:54;17.67;;;3.30;;
5052;SDS011;2545;50.892;5.740;2022-07-29T08:58:20;7.10;;;4.23;;
5052;SDS011;2545;50.892;5.740;2022-07-29T09:00:50;14.20;;;3.60;;
5052;SDS011;2545;50.892;5.740;2022-07-29T09:03:18;9.10;;;4.00;;
5052;SDS011;2545;50.892;5.740;2022-07-29T09:05:44;8.30;;;4.40;;
5052;SDS011;2545;50.892;5.740;2022-07-29T09:08:10;9.40;;;3.60;;
5052;SDS011;2545;50.892;5.740;2022-07-29T09:10:37;7.00;;;3.03;;
5052;SDS011;2545;50.892;5.740;2022-07-29T09:13:03;9.23;;;4.20;;
5052;SDS011;2545;50.892;5.740;2022-07-29T09:15:28;15.57;;;4.20;;
5052;SDS011;2545;50.892;5.740;2022-07-29T09:17:53;8.33;;;4.13;;
5052;SDS011;2545;50.892;5.740;2022-07-29T09:20:20;14.03;;;4.10;;
5052;SDS011;2545;50.892;5.740;2022-07-29T09:22:50;7.73;;;4.40;;
5052;SDS011;2545;50.892;5.740;2022-07-29T09:28:05;7.30;;;4.47;;
5052;SDS011;2545;50.892;5.740;2022-07-29T09:33:23;7.37;;;4.70;;
5052;SDS011;2545;50.892;5.740;2022-07-29T09:35:59;14.13;;;5.00;;
5052;SDS011;2545;50.892;5.740;2022-07-29T09:38:27;9.10;;;6.17;;
5052;SDS011;2545;50.892;5.740;2022-07-29T09:40:56;13.03;;;5.57;;
5052;SDS011;2545;50.892;5.740;2022-07-29T09:43:22;14.53;;;6.27;;
5052;SDS011;2545;50.892;5.740;2022-07-29T09:45:48;11.57;;;6.23;;
5052;SDS011;2545;50.892;5.740;2022-07-29T09:48:17;8.17;;;5.43;;
5052;SDS011;2545;50.892;5.740;2022-07-29T09:50:44;17.93;;;6.40;;
5052;SDS011;2545;50.892;5.740;2022-07-29T09:53:11;17.43;;;6.37;;
5052;SDS011;2545;50.892;5.740;2022-07-29T09:58:31;10.17;;;6.10;;
5052;SDS011;2545;50.892;5.740;2022-07-29T10:00:59;10.00;;;6.43;;
5052;SDS011;2545;50.892;5.740;2022-07-29T10:03:25;15.80;;;5.27;;
5052;SDS011;2545;50.892;5.740;2022-07-29T10:06:03;10.97;;;5.70;;
5052;SDS011;2545;50.892;5.740;2022-07-29T10:08:33;13.90;;;6.13;;
5052;SDS011;2545;50.892;5.740;2022-07-29T10:11:09;10.83;;;5.90;;
5052;SDS011;2545;50.892;5.740;2022-07-29T10:13:42;14.33;;;6.27;;
5052;SDS011;2545;50.892;5.740;2022-07-29T10:16:08;9.87;;;6.57;;
5052;SDS011;2545;50.892;5.740;2022-07-29T10:18:35;10.40;;;5.40;;
5052;SDS011;2545;50.892;5.740;2022-07-29T10:21:03;9.27;;;5.63;;
5052;SDS011;2545;50.892;5.740;2022-07-29T10:23:29;10.70;;;6.00;;
5052;SDS011;2545;50.892;5.740;2022-07-29T10:25:56;9.50;;;6.30;;
5052;SDS011;2545;50.892;5.740;2022-07-29T10:28:22;10.33;;;6.30;;
5052;SDS011;2545;50.892;5.740;2022-07-29T10:30:48;6.50;;;5.50;;
5052;SDS011;2545;50.892;5.740;2022-07-29T10:33:32;8.03;;;4.87;;
5052;SDS011;2545;50.892;5.740;2022-07-29T10:44:35;5.97;;;3.33;;
5052;SDS011;2545;50.892;5.740;2022-07-29T10:47:05;7.97;;;3.23;;
5052;SDS011;2545;50.892;5.740;2022-07-29T10:49:30;6.10;;;3.50;;
5052;SDS011;2545;50.892;5.740;2022-07-29T10:59:38;11.27;;;3.50;;
5052;SDS011;2545;50.892;5.740;2022-07-29T11:02:40;8.80;;;2.90;;
5052;SDS011;2545;50.892;5.740;2022-07-29T11:07:25;4.20;;;2.90;;
5052;SDS011;2545;50.892;5.740;2022-07-29T11:15:07;7.03;;;2.80;;
5052;SDS011;2545;50.892;5.740;2022-07-29T11:18:02;6.32;;;3.13;;
5052;SDS011;2545;50.892;5.740;2022-07-29T11:23:19;4.55;;;2.55;;
5052;SDS011;2545;50.892;5.740;2022-07-29T11:31:16;7.30;;;3.00;;
5052;SDS011;2545;50.892;5.740;2022-07-29T11:33:44;3.75;;;2.60;;
5052;SDS011;2545;50.892;5.740;2022-07-29T11:36:10;4.18;;;2.95;;
5052;SDS011;2545;50.892;5.740;2022-07-29T11:38:38;6.93;;;2.65;;
5052;SDS011;2545;50.892;5.740;2022-07-29T11:43:52;9.65;;;2.80;;
5052;SDS011;2545;50.892;5.740;2022-07-29T11:49:09;3.35;;;2.80;;
5052;SDS011;2545;50.892;5.740;2022-07-29T11:51:38;4.63;;;2.95;;
5052;SDS011;2545;50.892;5.740;2022-07-29T11:54:04;5.20;;;3.00;;
5052;SDS011;2545;50.892;5.740;2022-07-29T11:56:33;5.47;;;3.55;;
5052;SDS011;2545;50.892;5.740;2022-07-29T11:59:04;4.25;;;3.17;;
5052;SDS011;2545;50.892;5.740;2022-07-29T12:01:31;4.35;;;3.83;;
5052;SDS011;2545;50.892;5.740;2022-07-29T12:04:06;4.18;;;3.00;;
5052;SDS011;2545;50.892;5.740;2022-07-29T12:06:35;4.28;;;3.38;;
5052;SDS011;2545;50.892;5.740;2022-07-29T12:09:06;6.00;;;3.47;;
5052;SDS011;2545;50.892;5.740;2022-07-29T12:11:32;4.88;;;3.30;;
5052;SDS011;2545;50.892;5.740;2022-07-29T12:13:58;6.28;;;3.30;;
5052;SDS011;2545;50.892;5.740;2022-07-29T12:16:23;2.78;;;2.55;;
5052;SDS011;2545;50.892;5.740;2022-07-29T12:19:00;4.97;;;2.42;;
5052;SDS011;2545;50.892;5.740;2022-07-29T12:21:27;7.82;;;3.10;;
5052;SDS011;2545;50.892;5.740;2022-07-29T12:23:54;4.00;;;3.22;;
5052;SDS011;2545;50.892;5.740;2022-07-29T12:26:20;6.50;;;3.28;;
5052;SDS011;2545;50.892;5.740;2022-07-29T12:28:46;4.22;;;2.40;;
5052;SDS011;2545;50.892;5.740;2022-07-29T12:31:14;3.90;;;2.17;;
5052;SDS011;2545;50.892;5.740;2022-07-29T12:33:41;2.60;;;2.40;;
5052;SDS011;2545;50.892;5.740;2022-07-29T12:36:06;4.00;;;2.45;;
5052;SDS011;2545;50.892;5.740;2022-07-29T12:38:33;2.63;;;2.00;;
5052;SDS011;2545;50.892;5.740;2022-07-29T12:41:02;9.05;;;2.30;;
5052;SDS011;2545;50.892;5.740;2022-07-29T12:43:28;2.22;;;1.92;;
5052;SDS011;2545;50.892;5.740;2022-07-29T12:45:54;2.05;;;1.80;;
5052;SDS011;2545;50.892;5.740;2022-07-29T12:48:34;2.30;;;2.00;;
5052;SDS011;2545;50.892;5.740;2022-07-29T12:51:01;1.80;;;1.70;;
5052;SDS011;2545;50.892;5.740;2022-07-29T12:53:28;2.83;;;1.70;;
5052;SDS011;2545;50.892;5.740;2022-07-29T12:55:53;2.20;;;2.00;;
5052;SDS011;2545;50.892;5.740;2022-07-29T13:01:06;2.08;;;1.58;;
5052;SDS011;2545;50.892;5.740;2022-07-29T13:06:23;2.08;;;1.70;;
5052;SDS011;2545;50.892;5.740;2022-07-29T13:08:59;2.45;;;1.80;;
5052;SDS011;2545;50.892;5.740;2022-07-29T13:13:57;2.63;;;1.77;;
5052;SDS011;2545;50.892;5.740;2022-07-29T13:16:22;3.95;;;1.83;;
5052;SDS011;2545;50.892;5.740;2022-07-29T13:18:48;2.40;;;1.65;;
5052;SDS011;2545;50.892;5.740;2022-07-29T13:21:14;3.22;;;1.77;;
5052;SDS011;2545;50.892;5.740;2022-07-29T13:23:40;2.53;;;1.77;;
5052;SDS011;2545;50.892;5.740;2022-07-29T13:26:06;2.53;;;1.63;;
5052;SDS011;2545;50.892;5.740;2022-07-29T13:28:36;6.00;;;1.80;;
5052;SDS011;2545;50.892;5.740;2022-07-29T13:31:02;9.15;;;2.05;;
5052;SDS011;2545;50.892;5.740;2022-07-29T13:33:27;2.75;;;1.90;;
5052;SDS011;2545;50.892;5.740;2022-07-29T13:35:52;3.38;;;1.88;;
5052;SDS011;2545;50.892;5.740;2022-07-29T13:38:18;7.25;;;1.98;;
5052;SDS011;2545;50.892;5.740;2022-07-29T13:40:43;11.77;;;2.72;;
5052;SDS011;2545;50.892;5.740;2022-07-29T13:43:09;7.68;;;2.33;;
5052;SDS011;2545;50.892;5.740;2022-07-29T13:45:35;4.25;;;2.20;;
5052;SDS011;2545;50.892;5.740;2022-07-29T13:48:00;6.05;;;2.50;;
5052;SDS011;2545;50.892;5.740;2022-07-29T13:50:26;3.95;;;2.00;;
5052;SDS011;2545;50.892;5.740;2022-07-29T13:52:51;3.53;;;1.65;;
5052;SDS011;2545;50.892;5.740;2022-07-29T13:55:17;5.53;;;1.95;;
5052;SDS011;2545;50.892;5.740;2022-07-29T13:57:42;4.63;;;2.28;;
5052;SDS011;2545;50.892;5.740;2022-07-29T14:00:09;5.22;;;1.80;;
5052;SDS011;2545;50.892;5.740;2022-07-29T14:02:35;5.70;;;2.13;;
5052;SDS011;2545;50.892;5.740;2022-07-29T14:05:02;4.82;;;1.90;;
5052;SDS011;2545;50.892;5.740;2022-07-29T14:07:28;3.70;;;2.10;;
5052;SDS011;2545;50.892;5.740;2022-07-29T14:09:53;2.55;;;2.08;;
5052;SDS011;2545;50.892;5.740;2022-07-29T14:12:18;2.72;;;2.00;;
5052;SDS011;2545;50.892;5.740;2022-07-29T14:14:44;3.03;;;1.92;;
5052;SDS011;2545;50.892;5.740;2022-07-29T14:17:09;4.15;;;2.80;;
5052;SDS011;2545;50.892;5.740;2022-07-29T14:19:35;7.72;;;2.55;;
5052;SDS011;2545;50.892;5.740;2022-07-29T14:22:01;5.30;;;2.42;;
5052;SDS011;2545;50.892;5.740;2022-07-29T14:24:27;2.85;;;2.13;;
5052;SDS011;2545;50.892;5.740;2022-07-29T14:26:53;2.85;;;1.88;;
5052;SDS011;2545;50.892;5.740;2022-07-29T14:29:18;2.03;;;1.83;;
5052;SDS011;2545;50.892;5.740;2022-07-29T14:31:44;3.70;;;1.60;;
5052;SDS011;2545;50.892;5.740;2022-07-29T14:34:09;4.30;;;1.83;;
5052;SDS011;2545;50.892;5.740;2022-07-29T14:36:34;2.42;;;1.95;;
5052;SDS011;2545;50.892;5.740;2022-07-29T14:38:59;5.50;;;2.15;;
5052;SDS011;2545;50.892;5.740;2022-07-29T14:41:25;3.78;;;2.17;;
5052;SDS011;2545;50.892;5.740;2022-07-29T14:43:53;2.45;;;1.77;;
5052;SDS011;2545;50.892;5.740;2022-07-29T14:46:18;3.05;;;2.40;;
5052;SDS011;2545;50.892;5.740;2022-07-29T14:48:44;5.80;;;2.57;;
5052;SDS011;2545;50.892;5.740;2022-07-29T14:51:09;2.60;;;2.10;;
5052;SDS011;2545;50.892;5.740;2022-07-29T14:53:35;8.87;;;2.70;;
5052;SDS011;2545;50.892;5.740;2022-07-29T14:56:00;3.87;;;2.40;;
5052;SDS011;2545;50.892;5.740;2022-07-29T14:58:26;5.87;;;2.80;;
5052;SDS011;2545;50.892;5.740;2022-07-29T15:00:51;3.57;;;3.00;;
5052;SDS011;2545;50.892;5.740;2022-07-29T15:03:17;4.53;;;2.67;;
5052;SDS011;2545;50.892;5.740;2022-07-29T15:05:42;12.60;;;2.57;;
5052;SDS011;2545;50.892;5.740;2022-07-29T15:08:07;3.20;;;2.33;;
5052;SDS011;2545;50.892;5.740;2022-07-29T15:10:33;3.80;;;2.27;;
5052;SDS011;2545;50.892;5.740;2022-07-29T15:13:01;2.67;;;1.90;;
5052;SDS011;2545;50.892;5.740;2022-07-29T15:15:26;4.00;;;2.57;;
5052;SDS011;2545;50.892;5.740;2022-07-29T15:17:51;2.30;;;1.97;;
5052;SDS011;2545;50.892;5.740;2022-07-29T15:20:17;5.10;;;2.20;;
5052;SDS011;2545;50.892;5.740;2022-07-29T15:22:42;4.00;;;2.20;;
5052;SDS011;2545;50.892;5.740;2022-07-29T15:25:08;3.60;;;2.17;;
5052;SDS011;2545;50.892;5.740;2022-07-29T15:27:33;4.47;;;2.63;;
5052;SDS011;2545;50.892;5.740;2022-07-29T15:29:59;5.03;;;2.40;;
5052;SDS011;2545;50.892;5.740;2022-07-29T15:32:24;4.53;;;2.30;;
5052;SDS011;2545;50.892;5.740;2022-07-29T15:34:52;2.50;;;2.23;;
5052;SDS011;2545;50.892;5.740;2022-07-29T15:37:17;6.70;;;2.43;;
5052;SDS011;2545;50.892;5.740;2022-07-29T15:39:43;5.30;;;2.67;;
5052;SDS011;2545;50.892;5.740;2022-07-29T15:42:08;10.70;;;2.60;;
5052;SDS011;2545;50.892;5.740;2022-07-29T15:44:33;4.87;;;2.03;;
5052;SDS011;2545;50.892;5.740;2022-07-29T15:46:59;2.13;;;1.93;;
5052;SDS011;2545;50.892;5.740;2022-07-29T15:52:05;3.33;;;2.37;;
5052;SDS011;2545;50.892;5.740;2022-07-29T15:54:32;2.90;;;2.30;;
5052;SDS011;2545;50.892;5.740;2022-07-29T15:56:58;7.53;;;2.37;;
5052;SDS011;2545;50.892;5.740;2022-07-29T15:59:24;7.77;;;2.27;;
5052;SDS011;2545;50.892;5.740;2022-07-29T16:01:50;2.87;;;2.27;;
5052;SDS011;2545;50.892;5.740;2022-07-29T16:04:15;9.57;;;2.27;;
5052;SDS011;2545;50.892;5.740;2022-07-29T16:06:42;4.10;;;1.93;;
5052;SDS011;2545;50.892;5.740;2022-07-29T16:09:07;6.10;;;2.53;;
5052;SDS011;2545;50.892;5.740;2022-07-29T16:11:33;2.53;;;2.00;;
5052;SDS011;2545;50.892;5.740;2022-07-29T16:13:58;3.27;;;2.07;;
5052;SDS011;2545;50.892;5.740;2022-07-29T16:16:24;4.63;;;2.23;;
5052;SDS011;2545;50.892;5.740;2022-07-29T16:18:49;12.63;;;2.30;;
5052;SDS011;2545;50.892;5.740;2022-07-29T16:21:14;7.00;;;2.20;;
5052;SDS011;2545;50.892;5.740;2022-07-29T16:23:40;10.97;;;2.60;;
5052;SDS011;2545;50.892;5.740;2022-07-29T16:26:05;9.97;;;2.50;;